Latest Weather Observations for Mount Gellibrand

IDV60801

Issued at 7:03 pm EST Monday 29 May 2017 (issued every 30 minutes, with the page automatically refreshed every 10 minutes)

About weather observations | Map of weather stations | Latest weather observations for VIC | Other Formats
Station Details ID: 090035 Name: MOUNT GELLIBRAND Lat: -38.23 Lon: 143.79 Height: 261.0 m
Data from the previous 72 hours. | See also: Recent months at Mount Gellibrand
Date/Time
EST
Temp
°C
App
Temp
°C
Dew
Point
°C
Rel
Hum
%
Delta-T
°C
Wind Press
QNH
hPa
Press
MSL
hPa
Rain since
9am
mm
Dir  Spd
km/h
Gust
km/h
Spd
kts
Gust
kts
29/07:00pm 8.8 3.0 6.4 85 1.1 NNW 26 30 14 16 1018.3 1018.4 0.2
29/06:30pm 8.8 3.0 6.4 85 1.1 NNW 26 28 14 15 1018.4 1018.5 0.2
29/06:00pm 9.2 3.4 6.3 82 1.4 NNW 26 30 14 16 1018.2 1018.3 0.2
29/05:30pm 9.5 4.1 6.4 81 1.5 NW 24 30 13 16 1018.1 1018.2 0.2
29/05:00pm 9.9 4.6 6.6 80 1.6 NW 24 28 13 15 1018.1 1018.2 0.2
29/04:30pm 10.4 4.7 6.9 79 1.7 WNW 26 33 14 18 1018.2 1018.3 0.2
29/04:00pm 10.5 3.6 6.5 76 1.9 WNW 32 39 17 21 1018.1 1018.2 0.2
29/03:30pm 10.8 5.6 7.3 79 1.7 NW 24 30 13 16 1018.0 1018.1 0.2
29/03:00pm 10.8 2.9 6.2 73 2.2 NW 37 44 20 24 1017.7 1017.7 0.2
29/02:30pm 11.5 3.7 6.8 73 2.3 NW 37 44 20 24 1017.7 1017.7 0.2
29/02:00pm 10.9 1.9 6.5 74 2.1 WNW 43 52 23 28 1017.8 1017.9 0.2
29/01:30pm 11.0 3.6 6.9 76 2.0 WNW 35 44 19 24 1018.1 1018.2 0.2
29/01:00pm 10.4 3.6 6.7 78 1.8 WNW 32 39 17 21 1018.2 1018.3 0.2
29/12:30pm 11.2 5.1 8.2 82 1.5 NW 30 37 16 20 1018.2 1018.3 0.2
29/12:00pm 10.5 4.3 7.7 83 1.4 NW 30 35 16 19 1018.5 1018.6 0.2
29/11:30am 10.0 3.5 8.3 89 0.8 WNW 32 39 17 21 1018.7 1018.8 0.0
29/11:00am 9.2 3.6 8.9 98 0.1 WNW 28 35 15 19 1018.9 1019.0 0.0
29/10:30am 8.2 3.2 8.2 100 0.0 WNW 24 32 13 17 1019.0 1019.1 0.0
29/10:00am 7.2 2.0 7.2 100 0.0 WNW 24 32 13 17 1018.8 1018.9 0.0
29/09:30am 6.1 0.3 6.1 100 0.0 W 26 30 14 16 1018.6 1018.7 0.0
29/09:00am 5.8 0.3 5.8 100 0.0 WNW 24 28 13 15 1018.2 1018.3 7.0
29/08:30am 4.8 -1.3 4.8 100 0.0 WNW 26 32 14 17 1017.7 1017.7 7.0
29/08:00am 4.4 -1.4 4.4 100 0.0 WNW 24 30 13 16 1017.3 1017.3 7.0
29/07:30am 4.2 -1.6 4.2 100 0.0 WNW 24 32 13 17 1017.2 1017.2 7.0
29/07:00am 4.3 -2.7 4.3 100 0.0 WNW 30 35 16 19 1016.9 1016.9 7.0
29/06:30am 4.1 -2.1 4.1 100 0.0 WNW 26 32 14 17 1016.6 1016.6 7.0
29/06:00am 4.3 -1.1 4.3 100 0.0 WNW 22 28 12 15 1016.2 1016.2 7.0
29/05:30am 4.6 -1.5 4.6 100 0.0 WNW 26 33 14 18 1016.0 1016.0 7.0
29/05:00am 4.0 -1.9 4.0 100 0.0 WNW 24 30 13 16 1015.6 1015.7 7.0
29/04:30am 4.4 -1.4 4.4 100 0.0 W 24 32 13 17 1015.4 1015.5 7.0
29/04:00am 4.1 -1.4 4.1 100 0.0 WNW 22 26 12 14 1015.3 1015.4 7.0
29/03:30am 3.9 -2.0 3.9 100 0.0 WNW 24 28 13 15 1015.0 1015.1 7.0
29/03:00am 3.8 -2.1 3.8 100 0.0 WNW 24 28 13 15 1014.8 1014.9 7.0
29/02:30am 3.6 -2.0 3.6 100 0.0 WNW 22 26 12 14 1014.6 1014.7 7.0
29/02:00am 4.0 -1.9 4.0 100 0.0 WNW 24 30 13 16 1014.5 1014.5 7.0
29/01:30am 4.1 -1.0 4.1 100 0.0 WNW 20 22 11 12 1014.2 1014.2 7.0
29/01:00am 4.2 -1.3 4.2 100 0.0 W 22 32 12 17 1014.0 1014.0 7.0
29/12:30am 3.8 -1.4 3.8 100 0.0 WNW 20 22 11 12 1013.8 1013.8 7.0
29/12:00am 4.1 -1.8 4.1 100 0.0 WNW 24 28 13 15 1013.8 1013.8 7.0
 
Date/Time
EST
Temp
°C
App
Temp
°C
Dew
Point
°C
Rel
Hum
%
Delta-T
°C
Wind Press
QNH
hPa
Press
MSL
hPa
Rain since
9am
mm
Dir  Spd
km/h
Gust
km/h
Spd
kts
Gust
kts
28/11:30pm 4.4 -1.4 4.4 100 0.0 W 24 30 13 16 1013.6 1013.6 7.0
28/11:00pm 4.3 -1.1 4.3 100 0.0 WNW 22 26 12 14 1013.4 1013.4 7.0
28/10:30pm 4.8 -1.3 4.8 100 0.0 WNW 26 30 14 16 1013.0 1013.0 7.0
28/10:00pm 4.9 -1.2 4.9 100 0.0 WNW 26 32 14 17 1012.8 1012.8 7.0
28/09:30pm 5.0 0.1 4.9 99 0.0 WNW 20 26 11 14 1012.5 1012.5 7.0
28/09:00pm 5.2 -0.1 5.1 99 0.0 WNW 22 28 12 15 1012.4 1012.4 6.4
28/08:30pm 4.6 -2.0 4.3 98 0.1 W 28 32 15 17 1011.9 1011.9 6.4
28/08:00pm 5.3 -0.4 5.0 98 0.1 W 24 30 13 16 1011.3 1011.4 6.2
28/07:30pm 5.5 -0.5 5.2 98 0.1 WSW 26 33 14 18 1011.3 1011.4 6.0
28/07:00pm 5.5 0.2 5.1 97 0.2 W 22 26 12 14 1010.5 1010.5 4.8
28/06:30pm 5.8 1.0 5.4 97 0.2 WNW 20 24 11 13 1009.9 1009.9 4.8
28/06:00pm 6.2 1.0 5.6 96 0.3 W 22 28 12 15 1009.7 1009.7 4.4
28/05:30pm 6.2 -0.1 5.5 95 0.3 WSW 28 35 15 19 1009.0 1009.0 4.4
28/05:11pm 6.4 -1.0 5.0 91 0.6 W 33 56 18 30 1008.6 1008.6 3.6
28/05:00pm 6.7 -0.1 5.2 90 0.7 WNW 30 35 16 19 1008.3 1008.3 3.4
28/04:30pm 7.0 0.3 5.8 92 0.5 W 30 35 16 19 1008.0 1007.9 3.4
28/04:00pm 7.0 1.5 5.9 93 0.5 WNW 24 32 13 17 1007.9 1007.8 3.4
28/03:30pm 6.4 0.4 5.5 94 0.4 W 26 37 14 20 1007.3 1007.3 3.4
28/03:00pm 6.0 0.1 5.6 97 0.2 WSW 26 32 14 17 1007.1 1007.1 3.4
28/02:30pm 5.2 -4.8 4.5 95 0.3 WSW 46 59 25 32 1006.9 1006.9 3.2
28/02:22pm 4.8 -6.1 3.8 93 0.4 WSW 50 72 27 39 1006.8 1006.8 2.6
28/02:16pm 6.3 -2.3 4.5 88 0.8 W 39 65 21 35 1006.6 1006.6 1.6
28/02:14pm 8.4 1.4 6.7 89 0.8 WNW 33 57 18 31 1006.7 1006.7 1.4
28/02:00pm 8.6 1.2 6.7 88 0.9 W 35 46 19 25 1006.5 1006.5 1.2
28/01:30pm 8.0 1.1 7.1 94 0.4 WNW 33 43 18 23 1006.5 1006.5 1.2
28/01:00pm 6.8 -0.5 5.6 92 0.5 WNW 33 43 18 23 1006.5 1006.5 0.8
28/12:30pm 8.6 0.8 4.8 77 1.7 W 35 44 19 24 1006.4 1006.4 0.0
28/12:00pm 8.8 0.2 4.8 76 1.8 WNW 39 46 21 25 1006.8 1006.8 0.0
28/11:30am 9.4 1.7 7.0 85 1.1 WNW 37 46 20 25 1007.1 1007.1 0.0
28/11:00am 8.4 0.9 6.5 88 0.9 WNW 35 44 19 24 1007.4 1007.4 0.0
28/10:30am 8.3 0.2 7.1 92 0.6 W 39 54 21 29 1007.2 1007.2 0.0
28/10:00am 8.6 1.5 8.2 97 0.2 WNW 35 43 19 23 1006.9 1006.9 0.0
28/09:30am 8.1 1.6 8.0 99 0.0 WNW 32 39 17 21 1006.7 1006.7 0.0
28/09:00am 7.8 1.0 7.8 100 0.0 WNW 33 41 18 22 1006.6 1006.6 14.2
28/08:30am 7.4 0.7 7.4 100 0.0 WNW 32 41 17 22 1006.4 1006.4 14.2
28/08:00am 7.0 -0.3 7.0 100 0.0 WNW 35 43 19 23 1006.1 1006.1 14.2
28/07:30am 7.3 0.0 7.3 100 0.0 WNW 35 46 19 25 1006.0 1006.0 14.2
28/07:00am 7.3 0.4 7.3 100 0.0 WNW 33 41 18 22 1006.1 1006.1 14.2
28/06:30am 7.3 0.0 7.3 100 0.0 WNW 35 43 19 23 1005.9 1005.9 14.2
28/06:00am 7.6 0.8 7.6 100 0.0 WNW 33 41 18 22 1005.8 1005.8 14.2
28/05:30am 7.8 1.0 7.8 100 0.0 NW 33 41 18 22 1005.7 1005.7 14.2
28/05:00am 7.7 1.8 7.7 100 0.0 NW 28 37 15 20 1005.6 1005.6 14.2
28/04:30am 8.1 1.6 8.1 100 0.0 NW 32 37 17 20 1005.6 1005.6 14.2
28/04:00am 8.2 1.1 8.2 100 0.0 NW 35 43 19 23 1005.5 1005.5 14.0
28/03:30am 8.5 1.1 8.5 100 0.0 NW 37 43 20 23 1005.7 1005.7 14.0
28/03:00am 8.4 1.4 8.4 100 0.0 NW 35 43 19 23 1005.8 1005.8 14.0
28/02:30am 8.5 2.1 8.5 100 0.0 NW 32 35 17 19 1005.8 1005.8 13.6
28/02:00am 8.4 2.3 8.4 100 0.0 NW 30 37 16 20 1005.8 1005.8 13.6
28/01:30am 8.6 2.6 8.6 100 0.0 NNW 30 35 16 19 1005.9 1005.9 13.6
28/01:00am 8.5 3.2 8.5 100 0.0 NNW 26 32 14 17 1006.3 1006.3 13.4
28/12:30am 8.7 3.5 8.7 100 0.0 NNW 26 32 14 17 1006.4 1006.4 13.4
28/12:00am 9.1 4.0 9.1 100 0.0 NNW 26 32 14 17 1007.1 1007.1 12.8
 
Date/Time
EST
Temp
°C
App
Temp
°C
Dew
Point
°C
Rel
Hum
%
Delta-T
°C
Wind Press
QNH
hPa
Press
MSL
hPa
Rain since
9am
mm
Dir  Spd
km/h
Gust
km/h
Spd
kts
Gust
kts
27/11:30pm 9.3 4.6 9.3 100 0.0 NNW 24 28 13 15 1007.5 1007.5 12.0
27/11:00pm 9.2 3.3 9.2 100 0.0 WNW 30 43 16 23 1007.3 1007.3 11.4
27/10:30pm 9.0 3.4 8.9 99 0.0 NW 28 33 15 18 1008.1 1008.0 8.0
27/10:00pm 8.7 0.9 8.1 96 0.3 WNW 39 46 21 25 1008.2 1008.2 5.2
27/09:55pm 8.5 -0.2 7.7 95 0.4 WNW 43 63 23 34 1007.7 1007.7 4.4
27/09:48pm 8.5 -2.0 7.4 93 0.5 WNW 52 74 28 40 1008.2 1008.2 4.0
27/09:43pm 9.9 2.2 8.5 91 0.7 WNW 39 74 21 40 1007.7 1007.7 1.4
27/09:41pm 11.3 4.7 10.0 92 0.7 NW 35 69 19 37 1008.2 1008.2 0.2
27/09:38pm 11.4 5.2 10.1 92 0.7 NNW 33 43 18 23 1008.2 1008.2 0.2
27/09:30pm 11.5 4.6 10.2 92 0.7 N 37 44 20 24 1006.7 1006.7 0.2
27/09:00pm 11.4 5.4 10.0 91 0.7 N 32 39 17 21 1007.2 1007.2 0.2
27/08:30pm 11.6 5.0 10.0 90 0.8 N 35 41 19 22 1007.5 1007.5 0.2
27/08:00pm 12.0 4.7 10.2 89 0.9 N 39 46 21 25 1007.6 1007.6 0.2
27/07:30pm 11.6 5.0 9.9 89 0.9 N 35 41 19 22 1008.1 1008.0 0.2
27/07:00pm 12.2 3.9 10.1 87 1.1 N 44 52 24 28 1007.7 1007.7 0.2
27/06:30pm 12.6 4.4 9.6 82 1.5 N 43 50 23 27 1007.7 1007.7 0.2
27/06:00pm 13.6 5.4 9.6 77 2.1 N 43 50 23 27 1008.0 1007.9 0.2
27/05:30pm 13.8 6.0 9.6 76 2.2 N 41 46 22 25 1008.3 1008.3 0.2
27/05:00pm 13.7 6.7 9.9 78 2.0 N 37 44 20 24 1008.7 1008.7 0.0
27/04:30pm 14.5 6.6 9.3 71 2.7 N 41 48 22 26 1008.8 1008.8 0.0
27/04:00pm 14.9 6.4 9.1 68 3.0 N 44 52 24 28 1008.8 1008.8 0.0
27/03:30pm 14.8 6.5 9.4 70 2.8 N 43 50 23 27 1009.0 1009.0 0.0
27/03:00pm 14.6 6.1 9.4 71 2.7 N 44 54 24 29 1009.4 1009.4 0.0
27/02:30pm 14.7 7.3 9.9 73 2.5 N 39 46 21 25 1009.9 1009.9 0.0
27/02:00pm 14.6 5.9 9.8 73 2.5 N 46 54 25 29 1010.2 1010.2 0.0
27/01:30pm 14.6 5.4 9.6 72 2.6 N 48 57 26 31 1010.5 1010.5 0.0
27/01:00pm 15.0 7.7 10.2 73 2.5 N 39 48 21 26 1011.2 1011.2 0.0
27/12:30pm 14.9 7.3 10.5 75 2.3 N 41 48 22 26 1011.9 1011.9 0.0
27/12:00pm 15.4 8.2 10.6 73 2.6 N 39 52 21 28 1012.7 1012.7 0.0
27/11:30am 14.9 5.8 9.9 72 2.6 N 48 59 26 32 1012.9 1012.9 0.0
27/11:00am 14.0 5.8 9.8 76 2.2 N 43 50 23 27 1013.7 1013.7 0.0
27/10:30am 13.0 5.2 9.8 81 1.7 N 41 50 22 27 1014.3 1014.3 0.0
27/10:00am 12.8 3.7 9.8 82 1.6 N 48 54 26 29 1014.2 1014.2 0.0
27/09:30am 12.7 4.3 9.7 82 1.6 N 44 54 24 29 1014.4 1014.4 0.0
27/09:00am 11.8 4.0 9.9 88 1.0 N 41 48 22 26 1014.7 1014.8 0.0
27/08:30am 10.7 4.2 9.1 90 0.8 N 33 41 18 22 1015.1 1015.2 0.0
27/08:00am 10.1 2.4 8.7 91 0.7 N 39 44 21 24 1014.9 1015.0 0.0
27/07:30am 10.3 2.7 8.9 91 0.7 N 39 43 21 23 1014.9 1015.0 0.0
27/07:00am 10.3 3.8 9.1 92 0.6 N 33 41 18 22 1015.1 1015.2 0.0
27/06:30am 10.4 4.0 9.5 94 0.5 N 33 37 18 20 1015.2 1015.3 0.0
27/06:00am 10.5 4.2 9.6 94 0.5 N 33 37 18 20 1015.3 1015.4 0.0
27/05:30am 10.4 4.0 9.5 94 0.5 N 33 39 18 21 1015.3 1015.4 0.0
27/05:00am 10.7 4.1 10.1 96 0.3 N 35 39 19 21 1015.4 1015.5 0.0
27/04:30am 10.3 3.6 9.8 97 0.3 N 35 39 19 21 1015.5 1015.6 0.0
27/04:00am 10.4 4.4 10.2 99 0.1 N 32 35 17 19 1015.6 1015.7 0.0
27/03:30am 10.3 4.7 10.1 99 0.1 N 30 37 16 20 1016.1 1016.1 0.0
27/03:00am 10.3 4.7 10.3 100 0.0 N 30 35 16 19 1016.5 1016.5 0.0
27/02:30am 9.3 3.4 9.2 99 0.1 N 30 35 16 19 1016.7 1016.7 0.0
27/02:00am 9.4 3.1 9.1 98 0.1 N 32 35 17 19 1016.8 1016.8 0.0
27/01:30am 9.7 4.2 9.1 96 0.3 N 28 32 15 17 1017.0 1017.0 0.0
27/01:00am 9.6 4.4 8.7 94 0.4 N 26 30 14 16 1017.4 1017.4 0.0
27/12:30am 9.3 4.6 7.7 90 0.8 N 22 24 12 13 1017.8 1017.9 0.0
27/12:00am 9.3 5.0 7.9 91 0.7 N 20 24 11 13 1018.1 1018.2 0.0
 
Date/Time
EST
Temp
°C
App
Temp
°C
Dew
Point
°C
Rel
Hum
%
Delta-T
°C
Wind Press
QNH
hPa
Press
MSL
hPa
Rain since
9am
mm
Dir  Spd
km/h
Gust
km/h
Spd
kts
Gust
kts
26/11:30pm 9.1 5.3 7.7 91 0.7 N 17 19 9 10 1018.4 1018.5 0.0
26/11:00pm 9.7 5.7 8.1 90 0.8 N 19 20 10 11 1018.5 1018.6 0.0
26/10:30pm 9.4 6.0 7.5 88 0.9 N 15 19 8 10 1018.9 1019.0 0.0
26/10:00pm 9.0 6.5 6.6 85 1.1 N 9 13 5 7 1019.1 1019.2 0.0
26/09:30pm 9.4 7.3 6.7 83 1.3 NNE 7 9 4 5 1019.2 1019.3 0.0
26/09:00pm 10.4 8.3 6.5 77 1.8 NNE 7 9 4 5 1019.2 1019.3 0.0
26/08:30pm 10.7 8.2 6.6 76 2.0 NNE 9 11 5 6 1019.2 1019.3 0.0
26/08:00pm 10.3 7.7 5.9 74 2.1 NE 9 11 5 6 1019.3 1019.4 0.0
26/07:30pm 10.7 8.1 6.3 74 2.1 NE 9 9 5 5 1019.5 1019.6 0.0

Other Formats:

Comma delimited format used in spreadsheet applications
http://www.bom.gov.au/fwo/IDV60801/IDV60801.95845.axf

JavaScript Object Notation format (JSON) in row-major order
http://www.bom.gov.au/fwo/IDV60801/IDV60801.95845.json